sensor_id;sensor_type;location;lat;lon;timestamp;pressure;altitude;pressure_sealevel;temperature;humidity
35878;BME280;21982;49.804;24.072;2023-02-22T00:00:57;96780.94;;;6.25;55.19
35878;BME280;21982;49.804;24.072;2023-02-22T00:03:31;96836.50;;;6.53;55.20
35878;BME280;21982;49.804;24.072;2023-02-22T00:05:58;96772.78;;;6.20;55.03
35878;BME280;21982;49.804;24.072;2023-02-22T00:08:26;96708.44;;;5.77;55.17
35878;BME280;21982;49.804;24.072;2023-02-22T00:11:01;96831.72;;;6.56;55.04
35878;BME280;21982;49.804;24.072;2023-02-22T00:13:28;96831.72;;;6.56;55.56
35878;BME280;21982;49.804;24.072;2023-02-22T00:15:54;96837.31;;;6.53;55.08
35878;BME280;21982;49.804;24.072;2023-02-22T00:18:20;96842.94;;;6.50;55.21
35878;BME280;21982;49.804;24.072;2023-02-22T00:20:46;96836.03;;;6.49;55.33
35878;BME280;21982;49.804;24.072;2023-02-22T00:23:19;96814.38;;;6.39;54.96
35878;BME280;21982;49.804;24.072;2023-02-22T00:25:47;96804.09;;;6.29;55.42
35878;BME280;21982;49.804;24.072;2023-02-22T00:28:12;96744.53;;;5.83;55.30
35878;BME280;21982;49.804;24.072;2023-02-22T00:30:39;96770.75;;;5.99;55.66
35878;BME280;21982;49.804;24.072;2023-02-22T00:33:10;96699.69;;;5.53;55.85
35878;BME280;21982;49.804;24.072;2023-02-22T00:35:38;96855.44;;;6.48;55.83
35878;BME280;21982;49.804;24.072;2023-02-22T00:38:04;96850.53;;;6.45;55.32
35878;BME280;21982;49.804;24.072;2023-02-22T00:40:31;96843.94;;;6.49;55.99
35878;BME280;21982;49.804;24.072;2023-02-22T00:43:00;96814.13;;;6.26;55.64
35878;BME280;21982;49.804;24.072;2023-02-22T00:45:27;96678.59;;;5.38;55.76
35878;BME280;21982;49.804;24.072;2023-02-22T00:47:53;96857.13;;;6.41;55.94
35878;BME280;21982;49.804;24.072;2023-02-22T00:50:23;96759.47;;;5.82;55.98
35878;BME280;21982;49.804;24.072;2023-02-22T00:52:49;96835.28;;;6.32;55.97
35878;BME280;21982;49.804;24.072;2023-02-22T00:55:27;96779.28;;;6.01;55.74
35878;BME280;21982;49.804;24.072;2023-02-22T00:57:53;96825.13;;;6.29;55.72
35878;BME280;21982;49.804;24.072;2023-02-22T01:00:27;96829.88;;;6.34;55.81
35878;BME280;21982;49.804;24.072;2023-02-22T01:02:53;96854.19;;;6.36;56.05
35878;BME280;21982;49.804;24.072;2023-02-22T01:05:22;96842.66;;;6.37;56.19
35878;BME280;21982;49.804;24.072;2023-02-22T01:07:48;96738.56;;;5.58;56.04
35878;BME280;21982;49.804;24.072;2023-02-22T01:10:16;96832.59;;;6.18;56.21
35878;BME280;21982;49.804;24.072;2023-02-22T01:12:42;96826.38;;;6.11;56.37
35878;BME280;21982;49.804;24.072;2023-02-22T01:15:08;96782.44;;;5.88;56.35
35878;BME280;21982;49.804;24.072;2023-02-22T01:17:35;96810.66;;;5.94;56.34
35878;BME280;21982;49.804;24.072;2023-02-22T01:20:02;96845.09;;;6.16;56.45
35878;BME280;21982;49.804;24.072;2023-02-22T01:22:31;96731.41;;;5.44;56.41
35878;BME280;21982;49.804;24.072;2023-02-22T01:24:56;96794.66;;;5.73;56.78
35878;BME280;21982;49.804;24.072;2023-02-22T01:27:22;96802.19;;;5.76;56.90
35878;BME280;21982;49.804;24.072;2023-02-22T01:29:48;96872.38;;;6.15;56.61
35878;BME280;21982;49.804;24.072;2023-02-22T01:32:14;96866.81;;;6.01;56.46
35878;BME280;21982;49.804;24.072;2023-02-22T01:34:39;96879.47;;;6.06;56.74
35878;BME280;21982;49.804;24.072;2023-02-22T01:37:05;96779.66;;;5.43;57.18
35878;BME280;21982;49.804;24.072;2023-02-22T01:39:31;96885.88;;;6.03;56.87
35878;BME280;21982;49.804;24.072;2023-02-22T01:41:57;96885.06;;;6.03;56.81
35878;BME280;21982;49.804;24.072;2023-02-22T01:44:31;96874.38;;;6.04;57.05
35878;BME280;21982;49.804;24.072;2023-02-22T01:46:58;96890.78;;;6.07;56.86
35878;BME280;21982;49.804;24.072;2023-02-22T01:49:30;96850.28;;;5.85;57.08
35878;BME280;21982;49.804;24.072;2023-02-22T01:52:00;96867.16;;;5.98;57.18
35878;BME280;21982;49.804;24.072;2023-02-22T01:54:31;96845.84;;;5.85;56.83
35878;BME280;21982;49.804;24.072;2023-02-22T01:59:33;96891.16;;;5.95;57.20
35878;BME280;21982;49.804;24.072;2023-02-22T02:02:01;96900.34;;;5.91;57.46
35878;BME280;21982;49.804;24.072;2023-02-22T02:04:28;96887.38;;;5.90;57.16
35878;BME280;21982;49.804;24.072;2023-02-22T02:06:57;96755.13;;;5.11;57.35
35878;BME280;21982;49.804;24.072;2023-02-22T02:09:31;96857.38;;;5.68;57.63
35878;BME280;21982;49.804;24.072;2023-02-22T02:11:59;96875.94;;;5.66;57.64
35878;BME280;21982;49.804;24.072;2023-02-22T02:14:27;96896.28;;;5.72;57.94
35878;BME280;21982;49.804;24.072;2023-02-22T02:16:56;96810.22;;;5.19;57.72
35878;BME280;21982;49.804;24.072;2023-02-22T02:19:51;96887.41;;;5.65;58.32
35878;BME280;21982;49.804;24.072;2023-02-22T02:36:18;96900.56;;;5.65;59.05
35878;BME280;21982;49.804;24.072;2023-02-22T02:38:56;96909.91;;;5.68;58.39
35878;BME280;21982;49.804;24.072;2023-02-22T02:41:49;96914.50;;;5.66;58.75
35878;BME280;21982;49.804;24.072;2023-02-22T02:44:22;96917.13;;;5.66;58.93
35878;BME280;21982;49.804;24.072;2023-02-22T02:46:55;96919.44;;;5.61;59.26
35878;BME280;21982;49.804;24.072;2023-02-22T02:49:29;96914.50;;;5.66;58.85
35878;BME280;21982;49.804;24.072;2023-02-22T02:51:59;96862.03;;;5.33;59.36
35878;BME280;21982;49.804;24.072;2023-02-22T02:54:27;96919.75;;;5.66;59.25
35878;BME280;21982;49.804;24.072;2023-02-22T02:56:54;96894.53;;;5.49;59.33
35878;BME280;21982;49.804;24.072;2023-02-22T02:59:29;96800.22;;;4.98;59.13
35878;BME280;21982;49.804;24.072;2023-02-22T03:12:59;96933.38;;;5.69;59.91
35878;BME280;21982;49.804;24.072;2023-02-22T03:15:51;96926.81;;;5.73;59.47
35878;BME280;21982;49.804;24.072;2023-02-22T03:21:30;96924.34;;;5.80;59.50
35878;BME280;21982;49.804;24.072;2023-02-22T03:24:07;96934.03;;;5.80;59.70
35878;BME280;21982;49.804;24.072;2023-02-22T03:26:38;96856.28;;;5.38;59.55
35878;BME280;21982;49.804;24.072;2023-02-22T03:29:07;96940.75;;;5.90;59.42
35878;BME280;21982;49.804;24.072;2023-02-22T03:31:40;96948.47;;;5.92;59.59
35878;BME280;21982;49.804;24.072;2023-02-22T03:34:12;96949.47;;;5.91;59.54
35878;BME280;21982;49.804;24.072;2023-02-22T03:36:49;96860.72;;;5.29;59.48
35878;BME280;21982;49.804;24.072;2023-02-22T03:39:22;96959.47;;;5.87;59.63
35878;BME280;21982;49.804;24.072;2023-02-22T03:41:55;96936.84;;;5.62;59.86
35878;BME280;21982;49.804;24.072;2023-02-22T03:44:24;96982.47;;;5.36;60.48
35878;BME280;21982;49.804;24.072;2023-02-22T03:46:54;96970.97;;;5.21;60.82
35878;BME280;21982;49.804;24.072;2023-02-22T03:49:31;96981.97;;;5.09;61.45
35878;BME280;21982;49.804;24.072;2023-02-22T03:52:00;96995.41;;;5.05;62.34
35878;BME280;21982;49.804;24.072;2023-02-22T03:54:26;96984.44;;;5.10;62.12
35878;BME280;21982;49.804;24.072;2023-02-22T03:56:55;96870.53;;;4.46;62.34
35878;BME280;21982;49.804;24.072;2023-02-22T03:59:24;96985.06;;;5.20;62.24
35878;BME280;21982;49.804;24.072;2023-02-22T04:01:54;96965.06;;;5.11;62.67
35878;BME280;21982;49.804;24.072;2023-02-22T04:04:21;96984.78;;;5.31;62.35
35878;BME280;21982;49.804;24.072;2023-02-22T04:06:48;96990.34;;;5.36;62.41
35878;BME280;21982;49.804;24.072;2023-02-22T04:09:14;96932.59;;;5.04;62.33
35878;BME280;21982;49.804;24.072;2023-02-22T04:11:40;96941.78;;;5.08;62.62
35878;BME280;21982;49.804;24.072;2023-02-22T04:14:05;96988.06;;;5.42;62.63
35878;BME280;21982;49.804;24.072;2023-02-22T04:16:31;96948.00;;;5.07;62.62
35878;BME280;21982;49.804;24.072;2023-02-22T04:18:56;96974.09;;;5.33;62.96
35878;BME280;21982;49.804;24.072;2023-02-22T04:21:22;96976.25;;;5.37;62.90
35878;BME280;21982;49.804;24.072;2023-02-22T04:23:47;96985.78;;;5.47;62.63
35878;BME280;21982;49.804;24.072;2023-02-22T04:26:13;96921.13;;;5.13;62.50
35878;BME280;21982;49.804;24.072;2023-02-22T04:28:38;96997.25;;;5.70;62.61
35878;BME280;21982;49.804;24.072;2023-02-22T04:31:03;97014.16;;;5.67;62.25
35878;BME280;21982;49.804;24.072;2023-02-22T04:33:29;96961.81;;;5.42;62.19
35878;BME280;21982;49.804;24.072;2023-02-22T04:35:54;96907.50;;;5.01;62.50
35878;BME280;21982;49.804;24.072;2023-02-22T04:38:22;96946.38;;;5.22;62.68
35878;BME280;21982;49.804;24.072;2023-02-22T04:40:50;97001.03;;;5.59;62.87
35878;BME280;21982;49.804;24.072;2023-02-22T04:43:15;97002.66;;;5.60;62.97
35878;BME280;21982;49.804;24.072;2023-02-22T04:45:41;96972.81;;;5.37;63.43
35878;BME280;21982;49.804;24.072;2023-02-22T04:48:06;96909.44;;;4.99;63.37
35878;BME280;21982;49.804;24.072;2023-02-22T04:50:31;97009.06;;;5.58;62.99
35878;BME280;21982;49.804;24.072;2023-02-22T04:53:00;97009.88;;;5.58;63.20
35878;BME280;21982;49.804;24.072;2023-02-22T04:55:25;96975.75;;;5.34;62.84
35878;BME280;21982;49.804;24.072;2023-02-22T04:57:52;96966.06;;;5.34;63.54
35878;BME280;21982;49.804;24.072;2023-02-22T05:00:18;96994.97;;;5.51;63.11
35878;BME280;21982;49.804;24.072;2023-02-22T05:02:47;97022.53;;;5.63;63.19
35878;BME280;21982;49.804;24.072;2023-02-22T05:05:17;97019.91;;;5.63;63.31
35878;BME280;21982;49.804;24.072;2023-02-22T05:07:43;97021.22;;;5.59;63.34
35878;BME280;21982;49.804;24.072;2023-02-22T05:10:09;97005.81;;;5.48;63.71
35878;BME280;21982;49.804;24.072;2023-02-22T05:12:35;96959.81;;;5.11;63.29
35878;BME280;21982;49.804;24.072;2023-02-22T05:15:06;97025.66;;;5.58;63.55
35878;BME280;21982;49.804;24.072;2023-02-22T05:17:32;97030.41;;;5.55;63.73
35878;BME280;21982;49.804;24.072;2023-02-22T05:19:58;96918.13;;;4.92;63.59
35878;BME280;21982;49.804;24.072;2023-02-22T05:22:23;97026.00;;;5.47;63.41
35878;BME280;21982;49.804;24.072;2023-02-22T05:24:49;97006.13;;;5.36;63.78
35878;BME280;21982;49.804;24.072;2023-02-22T05:27:16;97017.28;;;5.47;63.80
35878;BME280;21982;49.804;24.072;2023-02-22T05:29:42;96996.91;;;5.32;63.87
35878;BME280;21982;49.804;24.072;2023-02-22T05:32:07;97052.72;;;5.59;63.72
35878;BME280;21982;49.804;24.072;2023-02-22T05:34:33;97060.78;;;5.57;63.72
35878;BME280;21982;49.804;24.072;2023-02-22T05:36:59;97004.13;;;5.22;64.08
35878;BME280;21982;49.804;24.072;2023-02-22T05:39:24;97019.88;;;5.30;64.14
35878;BME280;21982;49.804;24.072;2023-02-22T05:41:50;97063.56;;;5.56;63.99
35878;BME280;21982;49.804;24.072;2023-02-22T05:44:15;97073.75;;;5.59;63.91
35878;BME280;21982;49.804;24.072;2023-02-22T05:46:41;96982.13;;;5.07;64.00
35878;BME280;21982;49.804;24.072;2023-02-22T05:49:06;97029.41;;;5.31;63.84
35878;BME280;21982;49.804;24.072;2023-02-22T05:51:32;97008.53;;;5.22;63.82
35878;BME280;21982;49.804;24.072;2023-02-22T05:53:58;97038.13;;;5.40;64.01
35878;BME280;21982;49.804;24.072;2023-02-22T05:56:27;97087.91;;;5.74;64.01
35878;BME280;21982;49.804;24.072;2023-02-22T05:58:53;97095.44;;;5.69;63.97
35878;BME280;21982;49.804;24.072;2023-02-22T06:01:20;97036.16;;;5.42;63.98
35878;BME280;21982;49.804;24.072;2023-02-22T06:03:47;97049.63;;;5.63;63.98
35878;BME280;21982;49.804;24.072;2023-02-22T06:06:13;97100.72;;;5.93;63.73
35878;BME280;21982;49.804;24.072;2023-02-22T06:08:38;97097.44;;;5.91;63.56
35878;BME280;21982;49.804;24.072;2023-02-22T06:11:03;97102.53;;;5.93;63.71
35878;BME280;21982;49.804;24.072;2023-02-22T06:13:29;97068.16;;;5.62;63.40
35878;BME280;21982;49.804;24.072;2023-02-22T06:15:58;97068.19;;;5.54;62.94
35878;BME280;21982;49.804;24.072;2023-02-22T06:18:26;96902.31;;;4.43;63.29
35878;BME280;21982;49.804;24.072;2023-02-22T06:20:54;97119.09;;;5.77;63.44
35878;BME280;21982;49.804;24.072;2023-02-22T06:23:20;97063.22;;;5.43;63.49
35878;BME280;21982;49.804;24.072;2023-02-22T06:25:46;97129.63;;;5.85;63.46
35878;BME280;21982;49.804;24.072;2023-02-22T06:28:12;97133.72;;;5.88;63.37
35878;BME280;21982;49.804;24.072;2023-02-22T06:30:39;97071.44;;;5.39;63.05
35878;BME280;21982;49.804;24.072;2023-02-22T06:33:05;97143.25;;;5.81;63.36
35878;BME280;21982;49.804;24.072;2023-02-22T06:35:31;97139.78;;;5.80;63.52
35878;BME280;21982;49.804;24.072;2023-02-22T06:37:56;97147.00;;;5.78;63.58
35878;BME280;21982;49.804;24.072;2023-02-22T06:40:24;97146.19;;;5.78;63.13
35878;BME280;21982;49.804;24.072;2023-02-22T06:42:53;97144.38;;;5.70;63.62
35878;BME280;21982;49.804;24.072;2023-02-22T06:45:21;97084.38;;;5.33;63.62
35878;BME280;21982;49.804;24.072;2023-02-22T06:47:46;97151.78;;;5.75;63.70
35878;BME280;21982;49.804;24.072;2023-02-22T06:50:27;97152.44;;;5.85;63.46
35878;BME280;21982;49.804;24.072;2023-02-22T06:52:53;97150.97;;;5.90;63.59
35878;BME280;21982;49.804;24.072;2023-02-22T06:55:22;97063.56;;;5.48;63.41
35878;BME280;21982;49.804;24.072;2023-02-22T06:57:48;97165.00;;;6.15;63.45
35878;BME280;21982;49.804;24.072;2023-02-22T07:00:15;97108.97;;;6.07;63.17
35878;BME280;21982;49.804;24.072;2023-02-22T07:02:41;97127.66;;;6.28;62.62
35878;BME280;21982;49.804;24.072;2023-02-22T07:05:09;97165.44;;;6.67;62.08
35878;BME280;21982;49.804;24.072;2023-02-22T07:07:34;97020.41;;;5.91;61.86
35878;BME280;21982;49.804;24.072;2023-02-22T10:25:19;97215.06;;;6.95;59.27
35878;BME280;21982;49.804;24.072;2023-02-22T10:30:23;97201.19;;;7.95;58.01
35878;BME280;21982;49.804;24.072;2023-02-22T10:33:03;97180.03;;;8.03;57.70
35878;BME280;21982;49.804;24.072;2023-02-22T10:35:34;97208.63;;;8.46;57.34
35878;BME280;21982;49.804;24.072;2023-02-22T10:38:28;97194.19;;;8.33;56.51
35878;BME280;21982;49.804;24.072;2023-02-22T10:43:40;97220.16;;;8.22;56.83
35878;BME280;21982;49.804;24.072;2023-02-22T10:46:12;97117.56;;;7.58;56.30
35878;BME280;21982;49.804;24.072;2023-02-22T10:48:41;97209.00;;;8.12;56.93
35878;BME280;21982;49.804;24.072;2023-02-22T10:51:08;97133.97;;;7.68;56.98
35878;BME280;21982;49.804;24.072;2023-02-22T10:53:34;97089.06;;;7.62;56.65
35878;BME280;21982;49.804;24.072;2023-02-22T11:01:37;97187.13;;;12.59;52.12
35878;BME280;21982;49.804;24.072;2023-02-22T11:06:41;97127.50;;;13.52;50.27
35878;BME280;21982;49.804;24.072;2023-02-22T11:09:19;97192.88;;;14.24;48.20
35878;BME280;21982;49.804;24.072;2023-02-22T11:11:50;97119.88;;;12.91;48.12
35878;BME280;21982;49.804;24.072;2023-02-22T11:14:31;97173.63;;;12.54;48.80
35878;BME280;21982;49.804;24.072;2023-02-22T11:16:57;97169.34;;;12.86;48.89
35878;BME280;21982;49.804;24.072;2023-02-22T11:19:25;97114.19;;;12.48;47.67
35878;BME280;21982;49.804;24.072;2023-02-22T11:22:19;97197.94;;;13.36;47.71
35878;BME280;21982;49.804;24.072;2023-02-22T11:24:55;97186.88;;;13.97;47.06
35878;BME280;21982;49.804;24.072;2023-02-22T11:27:36;97183.78;;;14.00;46.23
35878;BME280;21982;49.804;24.072;2023-02-22T11:30:29;97180.00;;;13.83;46.59
35878;BME280;21982;49.804;24.072;2023-02-22T11:33:16;97127.22;;;12.83;46.12
35878;BME280;21982;49.804;24.072;2023-02-22T11:35:58;97201.03;;;12.74;46.92
35878;BME280;21982;49.804;24.072;2023-02-22T11:38:27;97171.00;;;12.47;46.83
35878;BME280;21982;49.804;24.072;2023-02-22T11:43:44;97191.44;;;11.79;46.49
35878;BME280;21982;49.804;24.072;2023-02-22T11:46:25;97123.13;;;10.99;46.87
35878;BME280;21982;49.804;24.072;2023-02-22T11:49:15;97186.25;;;11.23;47.08
35878;BME280;21982;49.804;24.072;2023-02-22T12:00:14;97179.00;;;11.04;47.21
35878;BME280;21982;49.804;24.072;2023-02-22T12:16:22;97148.34;;;10.39;47.36
35878;BME280;21982;49.804;24.072;2023-02-22T12:19:03;97179.53;;;10.65;47.21
35878;BME280;21982;49.804;24.072;2023-02-22T12:21:35;97111.84;;;10.13;47.22
35878;BME280;21982;49.804;24.072;2023-02-22T12:24:09;97184.34;;;10.33;46.90
35878;BME280;21982;49.804;24.072;2023-02-22T12:27:09;97150.53;;;9.78;47.29
35878;BME280;21982;49.804;24.072;2023-02-22T12:29:42;97190.38;;;9.77;47.36
35878;BME280;21982;49.804;24.072;2023-02-22T12:32:31;97136.63;;;9.19;47.97
35878;BME280;21982;49.804;24.072;2023-02-22T12:35:39;97193.09;;;9.32;48.27
35878;BME280;21982;49.804;24.072;2023-02-22T12:38:36;97191.94;;;9.35;48.59
35878;BME280;21982;49.804;24.072;2023-02-22T12:41:42;97168.69;;;9.30;48.57
35878;BME280;21982;49.804;24.072;2023-02-22T12:44:25;97201.38;;;9.44;48.32
35878;BME280;21982;49.804;24.072;2023-02-22T12:46:55;97187.53;;;9.27;48.07
35878;BME280;21982;49.804;24.072;2023-02-22T12:49:40;97198.22;;;9.34;48.67
35878;BME280;21982;49.804;24.072;2023-02-22T12:55:12;97202.41;;;9.28;48.06
35878;BME280;21982;49.804;24.072;2023-02-22T13:00:45;97202.09;;;9.08;48.02
35878;BME280;21982;49.804;24.072;2023-02-22T13:05:39;97170.94;;;8.89;48.11
35878;BME280;21982;49.804;24.072;2023-02-22T13:08:36;97196.63;;;8.95;48.44
35878;BME280;21982;49.804;24.072;2023-02-22T13:11:30;97197.25;;;8.83;48.50
35878;BME280;21982;49.804;24.072;2023-02-22T13:14:15;97142.31;;;8.26;48.68
35878;BME280;21982;49.804;24.072;2023-02-22T13:19:41;97097.47;;;7.80;48.67
35878;BME280;21982;49.804;24.072;2023-02-22T13:24:58;97198.34;;;8.51;48.51
35878;BME280;21982;49.804;24.072;2023-02-22T13:29:59;97207.38;;;8.56;48.88
35878;BME280;21982;49.804;24.072;2023-02-22T13:32:38;97174.56;;;8.36;48.73
35878;BME280;21982;49.804;24.072;2023-02-22T13:43:57;97212.25;;;8.45;49.31
35878;BME280;21982;49.804;24.072;2023-02-22T13:51:52;97142.25;;;7.88;50.05
35878;BME280;21982;49.804;24.072;2023-02-22T13:57:23;97191.09;;;8.30;49.79
35878;BME280;21982;49.804;24.072;2023-02-22T14:08:04;97157.00;;;7.97;49.93
35878;BME280;21982;49.804;24.072;2023-02-22T14:13:31;97167.69;;;7.73;49.75
35878;BME280;21982;49.804;24.072;2023-02-22T14:18:41;97135.19;;;7.27;49.74
35878;BME280;21982;49.804;24.072;2023-02-22T14:23:39;97226.50;;;7.73;50.56
35878;BME280;21982;49.804;24.072;2023-02-22T14:26:36;97209.97;;;7.57;50.94
35878;BME280;21982;49.804;24.072;2023-02-22T14:31:36;97230.34;;;7.63;50.58
35878;BME280;21982;49.804;24.072;2023-02-22T14:34:20;97240.94;;;7.55;50.32
35878;BME280;21982;49.804;24.072;2023-02-22T14:37:10;97180.16;;;7.17;51.23
35878;BME280;21982;49.804;24.072;2023-02-22T14:39:52;97219.59;;;7.33;51.50
35878;BME280;21982;49.804;24.072;2023-02-22T14:42:31;97238.97;;;7.49;51.03
35878;BME280;21982;49.804;24.072;2023-02-22T14:44:59;97241.63;;;7.40;51.43
35878;BME280;21982;49.804;24.072;2023-02-22T14:47:40;97241.63;;;7.40;50.56
35878;BME280;21982;49.804;24.072;2023-02-22T14:50:20;97230.44;;;7.30;51.49
35878;BME280;21982;49.804;24.072;2023-02-22T14:52:55;97182.31;;;6.97;51.02
35878;BME280;21982;49.804;24.072;2023-02-22T14:55:24;97198.00;;;6.91;50.99
35878;BME280;21982;49.804;24.072;2023-02-22T15:00:26;97265.06;;;7.19;51.48
35878;BME280;21982;49.804;24.072;2023-02-22T15:02:59;97135.22;;;6.31;51.45
35878;BME280;21982;49.804;24.072;2023-02-22T15:05:27;97230.84;;;6.95;51.12
35878;BME280;21982;49.804;24.072;2023-02-22T15:08:02;97257.84;;;7.05;51.59
35878;BME280;21982;49.804;24.072;2023-02-22T15:10:38;97266.75;;;6.88;51.95
35878;BME280;21982;49.804;24.072;2023-02-22T15:15:47;97232.22;;;6.50;51.91
35878;BME280;21982;49.804;24.072;2023-02-22T15:20:41;97268.53;;;6.63;51.63
35878;BME280;21982;49.804;24.072;2023-02-22T15:23:06;97249.97;;;6.48;52.10
35878;BME280;21982;49.804;24.072;2023-02-22T15:25:32;97275.97;;;6.51;52.02
35878;BME280;21982;49.804;24.072;2023-02-22T15:28:00;97276.59;;;6.45;52.27
35878;BME280;21982;49.804;24.072;2023-02-22T15:30:30;97241.06;;;6.17;52.19
35878;BME280;21982;49.804;24.072;2023-02-22T15:33:13;97229.88;;;6.07;52.29
35878;BME280;21982;49.804;24.072;2023-02-22T15:35:40;97283.81;;;6.35;52.66
35878;BME280;21982;49.804;24.072;2023-02-22T15:40:39;97182.28;;;5.67;52.69
35878;BME280;21982;49.804;24.072;2023-02-22T15:43:18;97290.53;;;6.29;52.89
35878;BME280;21982;49.804;24.072;2023-02-22T15:45:52;97273.28;;;6.19;52.92
35878;BME280;21982;49.804;24.072;2023-02-22T15:48:18;97291.19;;;6.15;52.93
35878;BME280;21982;49.804;24.072;2023-02-22T15:53:51;97298.88;;;6.09;53.08
35878;BME280;21982;49.804;24.072;2023-02-22T15:56:23;97286.34;;;5.94;53.10
35878;BME280;21982;49.804;24.072;2023-02-22T15:58:50;97304.81;;;6.11;53.42
35878;BME280;21982;49.804;24.072;2023-02-22T16:01:23;97234.00;;;5.67;53.71
35878;BME280;21982;49.804;24.072;2023-02-22T16:03:58;97290.31;;;5.98;53.18
35878;BME280;21982;49.804;24.072;2023-02-22T16:06:30;97320.59;;;6.11;53.79
35878;BME280;21982;49.804;24.072;2023-02-22T16:09:06;97274.47;;;5.82;53.52
35878;BME280;21982;49.804;24.072;2023-02-22T16:11:34;97243.47;;;5.52;53.48
35878;BME280;21982;49.804;24.072;2023-02-22T16:14:05;97313.59;;;5.93;53.57
35878;BME280;21982;49.804;24.072;2023-02-22T16:16:36;97306.16;;;5.81;53.42
35878;BME280;21982;49.804;24.072;2023-02-22T16:19:25;97339.53;;;5.88;53.65
35878;BME280;21982;49.804;24.072;2023-02-22T16:21:56;97322.59;;;5.83;53.73
35878;BME280;21982;49.804;24.072;2023-02-22T16:24:27;97290.16;;;5.66;53.81
35878;BME280;21982;49.804;24.072;2023-02-22T16:29:28;97341.84;;;5.91;53.89
35878;BME280;21982;49.804;24.072;2023-02-22T16:31:53;97293.69;;;5.49;53.73
35878;BME280;21982;49.804;24.072;2023-02-22T16:34:20;97331.88;;;5.69;54.30
35878;BME280;21982;49.804;24.072;2023-02-22T16:36:47;97348.34;;;5.79;54.25
35878;BME280;21982;49.804;24.072;2023-02-22T16:39:27;97259.91;;;5.28;53.77
35878;BME280;21982;49.804;24.072;2023-02-22T16:41:58;97271.56;;;5.25;54.00
35878;BME280;21982;49.804;24.072;2023-02-22T16:44:24;97353.56;;;5.71;54.06
35878;BME280;21982;49.804;24.072;2023-02-22T16:46:58;97320.94;;;5.48;53.86
35878;BME280;21982;49.804;24.072;2023-02-22T16:49:24;97358.75;;;5.63;54.38
35878;BME280;21982;49.804;24.072;2023-02-22T16:51:52;97309.66;;;5.29;54.39
35878;BME280;21982;49.804;24.072;2023-02-22T16:54:33;97344.56;;;5.48;53.64
35878;BME280;21982;49.804;24.072;2023-02-22T16:57:01;97297.63;;;5.19;53.69
35878;BME280;21982;49.804;24.072;2023-02-22T16:59:30;97364.31;;;5.60;53.96
35878;BME280;21982;49.804;24.072;2023-02-22T17:01:57;97321.06;;;5.20;54.17
35878;BME280;21982;49.804;24.072;2023-02-22T17:04:24;97379.69;;;5.47;53.95
35878;BME280;21982;49.804;24.072;2023-02-22T17:06:51;97372.06;;;5.35;54.25
35878;BME280;21982;49.804;24.072;2023-02-22T17:09:17;97366.97;;;5.34;54.14
35878;BME280;21982;49.804;24.072;2023-02-22T17:11:45;97349.50;;;5.25;54.30
35878;BME280;21982;49.804;24.072;2023-02-22T17:14:18;97369.28;;;5.37;53.91
35878;BME280;21982;49.804;24.072;2023-02-22T17:16:44;97357.53;;;5.23;53.58
35878;BME280;21982;49.804;24.072;2023-02-22T17:19:15;97333.13;;;5.05;53.55
35878;BME280;21982;49.804;24.072;2023-02-22T17:21:40;97323.91;;;5.01;53.43
35878;BME280;21982;49.804;24.072;2023-02-22T17:24:07;97316.34;;;4.98;53.63
35878;BME280;21982;49.804;24.072;2023-02-22T17:26:33;97380.59;;;5.37;53.58
35878;BME280;21982;49.804;24.072;2023-02-22T17:28:59;97379.09;;;5.35;53.77
35878;BME280;21982;49.804;24.072;2023-02-22T17:31:25;97209.94;;;4.34;53.47
35878;BME280;21982;49.804;24.072;2023-02-22T17:33:55;97337.59;;;5.13;52.80
35878;BME280;21982;49.804;24.072;2023-02-22T17:36:26;97371.31;;;5.25;53.22
35878;BME280;21982;49.804;24.072;2023-02-22T17:38:54;97352.38;;;5.14;53.00
35878;BME280;21982;49.804;24.072;2023-02-22T17:41:19;97350.06;;;5.11;53.06
35878;BME280;21982;49.804;24.072;2023-02-22T17:43:44;97389.75;;;5.33;53.12
35878;BME280;21982;49.804;24.072;2023-02-22T17:46:10;97371.94;;;5.19;53.63
35878;BME280;21982;49.804;24.072;2023-02-22T17:48:35;97337.69;;;5.03;53.32
35878;BME280;21982;49.804;24.072;2023-02-22T17:51:09;97382.25;;;5.38;52.96
35878;BME280;21982;49.804;24.072;2023-02-22T17:53:35;97389.31;;;5.38;53.14
35878;BME280;21982;49.804;24.072;2023-02-22T17:56:09;97386.22;;;5.43;52.98
35878;BME280;21982;49.804;24.072;2023-02-22T17:58:35;97393.88;;;5.36;53.05
35878;BME280;21982;49.804;24.072;2023-02-22T18:01:01;97376.56;;;5.25;53.11
35878;BME280;21982;49.804;24.072;2023-02-22T18:03:29;97372.97;;;5.26;53.03
35878;BME280;21982;49.804;24.072;2023-02-22T18:05:59;97395.75;;;5.44;53.11
35878;BME280;21982;49.804;24.072;2023-02-22T18:08:27;97394.94;;;5.43;52.78
35878;BME280;21982;49.804;24.072;2023-02-22T18:10:53;97404.09;;;5.39;53.12
35878;BME280;21982;49.804;24.072;2023-02-22T18:13:24;97333.50;;;4.92;52.92
35878;BME280;21982;49.804;24.072;2023-02-22T18:15:51;97405.16;;;5.28;52.88
35878;BME280;21982;49.804;24.072;2023-02-22T18:18:17;97406.78;;;5.29;53.00
35878;BME280;21982;49.804;24.072;2023-02-22T18:20:44;97273.66;;;4.52;52.91
35878;BME280;21982;49.804;24.072;2023-02-22T18:23:16;97388.72;;;5.26;52.61
35878;BME280;21982;49.804;24.072;2023-02-22T18:25:48;97358.91;;;5.10;52.49
35878;BME280;21982;49.804;24.072;2023-02-22T18:28:15;97332.78;;;4.82;52.44
35878;BME280;21982;49.804;24.072;2023-02-22T18:30:40;97401.28;;;5.15;53.38
35878;BME280;21982;49.804;24.072;2023-02-22T18:33:06;97402.84;;;5.08;52.99
35878;BME280;21982;49.804;24.072;2023-02-22T18:35:39;97401.50;;;5.03;53.43
35878;BME280;21982;49.804;24.072;2023-02-22T18:38:05;97408.25;;;5.06;53.40
35878;BME280;21982;49.804;24.072;2023-02-22T18:40:32;97404.66;;;5.07;53.04
35878;BME280;21982;49.804;24.072;2023-02-22T18:42:58;97374.22;;;4.79;53.46
35878;BME280;21982;49.804;24.072;2023-02-22T18:45:24;97414.03;;;4.92;53.33
35878;BME280;21982;49.804;24.072;2023-02-22T18:47:49;97406.16;;;4.92;53.68
35878;BME280;21982;49.804;24.072;2023-02-22T18:50:15;97348.44;;;4.56;53.59